createdAt,value
2022-09-23T00:01:25.037Z,99.77
2022-09-23T00:03:54.567Z,100.00
2022-09-23T00:06:24.540Z,100.00
2022-09-23T00:08:53.216Z,100.00
2022-09-23T00:11:23.515Z,100.00
2022-09-23T00:13:53.415Z,100.00
2022-09-23T00:16:24.175Z,100.00
2022-09-23T00:18:52.193Z,100.00
2022-09-23T00:21:23.318Z,100.00
2022-09-23T00:23:51.727Z,100.00
2022-09-23T00:26:21.576Z,100.00
2022-09-23T00:28:50.248Z,100.00
2022-09-23T00:31:20.793Z,100.00
2022-09-23T00:33:48.711Z,100.00
2022-09-23T00:36:17.541Z,100.00
2022-09-23T00:38:46.975Z,100.00
2022-09-23T00:41:16.363Z,100.00
2022-09-23T00:43:47.087Z,100.00
2022-09-23T00:46:18.756Z,100.00
2022-09-23T00:48:48.471Z,100.00
2022-09-23T00:51:19.399Z,100.00
2022-09-23T00:53:51.353Z,100.00
2022-09-23T00:56:22.305Z,100.00
2022-09-23T00:58:51.548Z,100.00
2022-09-23T01:01:20.882Z,100.00
2022-09-23T01:03:48.932Z,100.00
2022-09-23T01:06:16.830Z,100.00
2022-09-23T01:08:46.925Z,100.00
2022-09-23T01:11:28.222Z,100.00
2022-09-23T01:14:04.400Z,100.00
2022-09-23T01:16:39.738Z,100.00
2022-09-23T01:19:35.840Z,100.00
2022-09-23T01:22:11.868Z,100.00
2022-09-23T01:24:49.075Z,100.00
2022-09-23T01:27:39.251Z,100.00
2022-09-23T01:30:33.007Z,100.00
2022-09-23T01:33:11.188Z,100.00
2022-09-23T01:35:55.401Z,100.00
2022-09-23T01:38:33.154Z,100.00
2022-09-23T01:41:06.714Z,100.00
2022-09-23T01:43:41.139Z,100.00
2022-09-23T01:46:19.119Z,100.00
2022-09-23T01:48:53.642Z,100.00
2022-09-23T01:51:26.859Z,100.00
2022-09-23T01:54:02.908Z,100.00
2022-09-23T01:56:35.395Z,100.00
2022-09-23T01:59:10.373Z,100.00
2022-09-23T02:01:43.776Z,100.00
2022-09-23T02:04:18.637Z,100.00
2022-09-23T02:06:52.397Z,100.00
2022-09-23T02:09:26.450Z,100.00
2022-09-23T02:12:01.230Z,100.00
2022-09-23T02:14:33.279Z,100.00
2022-09-23T02:17:08.800Z,100.00
2022-09-23T02:19:43.722Z,100.00
2022-09-23T02:22:17.539Z,100.00
2022-09-23T02:24:46.066Z,100.00
2022-09-23T02:27:21.426Z,100.00
2022-09-23T02:29:56.586Z,100.00
2022-09-23T02:32:34.707Z,100.00
2022-09-23T02:35:11.151Z,100.00
2022-09-23T02:37:45.502Z,100.00
2022-09-23T02:40:23.831Z,100.00
2022-09-23T02:43:02.736Z,100.00
2022-09-23T02:45:31.204Z,100.00
2022-09-23T02:48:06.001Z,100.00
2022-09-23T02:50:34.588Z,100.00
2022-09-23T02:53:02.563Z,100.00
2022-09-23T02:55:32.379Z,100.00
2022-09-23T02:58:02.863Z,100.00
2022-09-23T03:00:43.232Z,100.00
2022-09-23T03:03:23.993Z,100.00
2022-09-23T03:05:56.552Z,100.00
2022-09-23T03:08:36.813Z,100.00
2022-09-23T03:11:08.749Z,100.00
2022-09-23T03:13:51.154Z,100.00
2022-09-23T03:16:31.142Z,100.00
2022-09-23T03:19:07.994Z,100.00
2022-09-23T03:21:42.516Z,100.00
2022-09-23T03:24:14.436Z,100.00
2022-09-23T03:26:46.858Z,100.00
2022-09-23T03:29:16.572Z,100.00
2022-09-23T03:31:45.764Z,100.00
2022-09-23T03:34:19.613Z,100.00
2022-09-23T03:36:56.212Z,100.00
2022-09-23T03:39:37.319Z,100.00
2022-09-23T03:42:16.882Z,100.00
2022-09-23T03:44:45.848Z,100.00
2022-09-23T03:47:14.638Z,100.00
2022-09-23T03:49:48.410Z,100.00
2022-09-23T03:52:16.747Z,100.00
2022-09-23T03:54:44.767Z,100.00
2022-09-23T03:57:13.365Z,100.00
2022-09-23T03:59:41.300Z,100.00
2022-09-23T04:02:09.395Z,100.00
2022-09-23T04:04:38.126Z,100.00
2022-09-23T04:07:07.325Z,100.00
2022-09-23T04:09:35.223Z,100.00
2022-09-23T04:12:03.952Z,100.00
2022-09-23T04:14:31.881Z,100.00
2022-09-23T04:16:59.895Z,100.00
2022-09-23T04:19:27.686Z,100.00
2022-09-23T04:21:55.460Z,100.00
2022-09-23T04:24:24.684Z,100.00
2022-09-23T04:26:53.834Z,100.00
2022-09-23T04:29:22.726Z,100.00
2022-09-23T04:31:50.869Z,100.00
2022-09-23T04:34:19.426Z,100.00
2022-09-23T04:36:48.596Z,100.00
2022-09-23T04:39:17.683Z,100.00
2022-09-23T04:41:47.765Z,100.00
2022-09-23T04:44:17.167Z,100.00
2022-09-23T04:46:48.147Z,100.00
2022-09-23T04:49:16.541Z,100.00
2022-09-23T04:51:45.626Z,100.00
2022-09-23T04:54:14.615Z,100.00
2022-09-23T04:56:42.879Z,100.00
2022-09-23T04:59:12.074Z,100.00
2022-09-23T05:01:39.948Z,100.00
2022-09-23T05:04:13.577Z,100.00
2022-09-23T05:06:42.519Z,100.00
2022-09-23T05:09:11.249Z,100.00
2022-09-23T05:11:38.990Z,100.00
2022-09-23T05:14:06.887Z,100.00
2022-09-23T05:16:36.316Z,100.00
2022-09-23T05:19:04.566Z,100.00
2022-09-23T05:21:32.960Z,100.00
2022-09-23T05:24:01.112Z,100.00
2022-09-23T05:26:31.145Z,100.00
2022-09-23T05:28:59.835Z,100.00
2022-09-23T05:31:29.208Z,100.00
2022-09-23T05:34:00.404Z,100.00
2022-09-23T05:36:34.209Z,100.00
2022-09-23T05:39:03.742Z,100.00
2022-09-23T05:41:31.579Z,100.00
2022-09-23T05:43:59.856Z,100.00
2022-09-23T05:46:29.510Z,100.00
2022-09-23T05:49:02.907Z,100.00
2022-09-23T05:51:39.056Z,100.00
2022-09-23T05:54:07.139Z,100.00
2022-09-23T05:56:35.712Z,100.00
2022-09-23T05:59:04.700Z,100.00
2022-09-23T06:01:35.249Z,100.00
2022-09-23T06:04:06.755Z,100.00
2022-09-23T06:06:37.642Z,100.00
2022-09-23T06:09:06.788Z,100.00
2022-09-23T06:11:36.396Z,100.00
2022-09-23T06:14:05.119Z,100.00
2022-09-23T06:16:35.577Z,100.00
2022-09-23T06:19:07.042Z,100.00
2022-09-23T06:21:37.660Z,100.00
2022-09-23T06:24:07.107Z,100.00
2022-09-23T06:26:35.577Z,100.00
2022-09-23T06:29:04.410Z,100.00
2022-09-23T06:31:33.051Z,100.00
2022-09-23T06:34:12.207Z,100.00
2022-09-23T06:36:45.447Z,100.00
2022-09-23T06:39:15.201Z,100.00
2022-09-23T06:41:43.364Z,100.00
2022-09-23T06:44:11.150Z,100.00
2022-09-23T06:46:39.125Z,100.00
2022-09-23T06:49:07.229Z,100.00
2022-09-23T06:51:35.068Z,100.00
2022-09-23T06:54:04.743Z,100.00
2022-09-23T06:56:37.935Z,100.00
2022-09-23T06:59:06.999Z,100.00
2022-09-23T07:01:34.893Z,100.00
2022-09-23T07:04:03.123Z,100.00
2022-09-23T07:06:30.953Z,100.00
2022-09-23T07:08:58.714Z,100.00
2022-09-23T07:11:27.976Z,100.00
2022-09-23T07:13:55.871Z,100.00
2022-09-23T07:16:23.757Z,98.83
2022-09-23T07:18:52.924Z,98.87
2022-09-23T07:21:21.009Z,98.57
2022-09-23T07:23:51.942Z,99.17
2022-09-23T07:26:21.194Z,99.40
2022-09-23T07:28:55.224Z,98.11
2022-09-23T07:31:35.675Z,96.59
2022-09-23T07:34:07.600Z,95.69
2022-09-23T07:36:37.507Z,94.72
2022-09-23T07:39:05.513Z,94.40
2022-09-23T07:41:35.063Z,91.31
2022-09-23T07:44:06.319Z,90.42
2022-09-23T07:46:37.275Z,89.26
2022-09-23T07:49:06.376Z,88.62
2022-09-23T07:51:37.018Z,86.34
2022-09-23T07:54:08.818Z,85.32
2022-09-23T07:56:37.870Z,84.51
2022-09-23T07:59:09.146Z,82.94
2022-09-23T08:01:39.260Z,81.66
2022-09-23T08:04:10.232Z,79.87
2022-09-23T08:06:41.846Z,79.83
2022-09-23T08:09:10.295Z,79.96
2022-09-23T08:11:39.472Z,78.56
2022-09-23T08:14:08.791Z,76.42
2022-09-23T08:16:37.186Z,74.60
2022-09-23T08:21:39.334Z,73.83
2022-09-23T08:24:07.875Z,73.50
2022-09-23T08:26:35.749Z,71.32
2022-09-23T08:29:03.545Z,70.93
2022-09-23T08:31:32.842Z,68.99
2022-09-23T08:34:00.988Z,68.86
2022-09-23T08:36:29.086Z,68.00
2022-09-23T08:38:57.332Z,68.02
2022-09-23T08:41:36.876Z,68.95
2022-09-23T08:44:09.912Z,69.04
2022-09-23T08:46:44.211Z,66.63
2022-09-23T08:49:18.237Z,65.75
2022-09-23T08:51:48.500Z,65.44
2022-09-23T08:54:18.874Z,65.09
2022-09-23T08:56:52.190Z,64.98
2022-09-23T08:59:29.200Z,64.31
2022-09-23T09:02:01.768Z,63.90
2022-09-23T09:04:44.521Z,62.09
2022-09-23T09:10:11.976Z,61.42
2022-09-23T09:12:44.335Z,59.90
2022-09-23T09:15:15.307Z,60.08
2022-09-23T09:17:52.828Z,60.27
2022-09-23T09:20:24.296Z,59.25
2022-09-23T09:22:57.619Z,59.16
2022-09-23T09:25:46.287Z,56.88
2022-09-23T09:28:20.065Z,56.70
2022-09-23T09:30:52.152Z,57.41
2022-09-23T09:33:30.010Z,55.08
2022-09-23T09:36:30.851Z,54.25
2022-09-23T09:38:59.741Z,56.14
2022-09-23T09:41:31.237Z,53.43
2022-09-23T09:44:03.490Z,53.19
2022-09-23T09:46:45.202Z,54.18
2022-09-23T09:49:23.211Z,52.27
2022-09-23T09:52:29.631Z,54.10
2022-09-23T09:55:15.989Z,55.52
2022-09-23T09:57:46.408Z,53.64
2022-09-23T10:00:38.250Z,51.27
2022-09-23T10:03:20.203Z,50.41
2022-09-23T10:05:52.283Z,50.08
2022-09-23T10:08:27.115Z,48.52
2022-09-23T10:11:02.344Z,51.07
2022-09-23T10:13:30.854Z,49.13
2022-09-23T10:16:00.621Z,48.44
2022-09-23T10:18:31.931Z,49.50
2022-09-23T10:21:09.467Z,48.52
2022-09-23T10:23:42.314Z,47.00
2022-09-23T10:26:12.348Z,48.77
2022-09-23T10:28:48.844Z,49.06
2022-09-23T10:31:24.535Z,48.99
2022-09-23T10:33:54.653Z,48.91
2022-09-23T10:36:24.468Z,49.18
2022-09-23T10:39:16.458Z,47.85
2022-09-23T10:42:12.657Z,45.56
2022-09-23T10:45:24.114Z,45.27
2022-09-23T10:48:04.295Z,45.35
2022-09-23T10:50:39.984Z,45.46
2022-09-23T10:53:19.474Z,44.26
2022-09-23T10:56:00.602Z,43.28
2022-09-23T10:58:48.555Z,41.79
2022-09-23T11:01:26.990Z,42.66
2022-09-23T11:04:17.496Z,40.01
2022-09-23T11:07:00.725Z,41.08
2022-09-23T11:09:40.632Z,41.72
2022-09-23T11:12:21.279Z,40.93
2022-09-23T11:15:04.907Z,37.39
2022-09-23T11:17:48.603Z,41.24
2022-09-23T11:20:35.848Z,39.26
2022-09-23T11:23:29.551Z,38.13
2022-09-23T11:26:07.911Z,36.98
2022-09-23T11:29:00.740Z,35.04
2022-09-23T11:31:38.527Z,34.93
2022-09-23T11:34:26.487Z,33.16
2022-09-23T11:37:02.340Z,34.19
2022-09-23T11:39:36.177Z,34.90
2022-09-23T11:42:12.855Z,35.75
2022-09-23T11:44:48.491Z,36.04
2022-09-23T11:47:22.940Z,36.62
2022-09-23T11:49:57.068Z,35.73
2022-09-23T11:52:30.377Z,35.97
2022-09-23T11:55:13.557Z,34.82
2022-09-23T11:57:50.118Z,35.27
2022-09-23T12:00:20.488Z,34.75
2022-09-23T12:03:05.321Z,35.04
2022-09-23T12:05:39.391Z,36.42
2022-09-23T12:08:14.153Z,33.57
2022-09-23T12:10:50.634Z,36.13
2022-09-23T12:13:25.456Z,30.07
2022-09-23T12:16:09.952Z,30.29
2022-09-23T12:18:52.678Z,29.93
2022-09-23T12:21:56.118Z,28.66
2022-09-23T12:24:52.182Z,26.61
2022-09-23T12:27:28.626Z,29.91
2022-09-23T12:30:02.579Z,31.17
2022-09-23T12:32:31.483Z,32.10
2022-09-23T12:35:00.527Z,31.09
2022-09-23T12:37:34.045Z,30.75
2022-09-23T12:40:08.632Z,30.44
2022-09-23T12:42:46.007Z,31.05
2022-09-23T12:45:35.079Z,28.90
2022-09-23T12:48:04.543Z,28.36
2022-09-23T12:50:53.116Z,28.26
2022-09-23T12:54:00.984Z,27.49
2022-09-23T12:56:58.185Z,26.96
2022-09-23T12:59:28.432Z,26.89
2022-09-23T13:01:58.509Z,25.86
2022-09-23T13:04:50.150Z,25.96
2022-09-23T13:07:20.271Z,27.71
2022-09-23T13:09:51.452Z,29.09
2022-09-23T13:12:24.778Z,29.33
2022-09-23T13:14:55.872Z,27.45
2022-09-23T13:17:31.816Z,28.79
2022-09-23T13:20:02.916Z,29.09
2022-09-23T13:23:20.216Z,29.23
2022-09-23T13:25:49.922Z,28.01
2022-09-23T13:28:27.396Z,28.41
2022-09-23T13:30:55.469Z,28.77
2022-09-23T13:33:38.849Z,29.57
2022-09-23T13:36:13.793Z,31.82
2022-09-23T13:38:42.212Z,33.34
2022-09-23T13:41:15.526Z,28.79
2022-09-23T13:43:45.730Z,31.58
2022-09-23T13:46:18.244Z,30.93
2022-09-23T13:48:49.989Z,31.27
2022-09-23T13:51:23.322Z,27.52
2022-09-23T13:53:55.744Z,28.71
2022-09-23T13:56:24.987Z,28.94
2022-09-23T13:58:53.385Z,30.60
2022-09-23T14:01:32.270Z,31.30
2022-09-23T14:04:02.440Z,29.75
2022-09-23T14:06:32.669Z,31.45
2022-09-23T14:09:02.544Z,32.87
2022-09-23T14:11:33.696Z,31.24
2022-09-23T14:14:07.863Z,29.94
2022-09-23T14:16:40.561Z,31.27
2022-09-23T14:19:17.951Z,30.88
2022-09-23T14:21:49.855Z,30.21
2022-09-23T14:24:20.068Z,29.20
2022-09-23T14:26:50.907Z,29.87
2022-09-23T14:29:21.651Z,30.71
2022-09-23T14:31:57.073Z,30.99
2022-09-23T14:34:44.159Z,32.74
2022-09-23T14:37:41.109Z,30.62
2022-09-23T14:40:14.892Z,31.50
2022-09-23T14:42:46.436Z,32.65
2022-09-23T14:45:17.743Z,33.39
2022-09-23T14:47:49.445Z,34.58
2022-09-23T14:50:39.938Z,35.37
2022-09-23T14:53:47.059Z,35.21
2022-09-23T14:56:21.037Z,34.92
2022-09-23T14:58:53.260Z,35.06
2022-09-23T15:01:40.267Z,35.74
2022-09-23T15:04:17.689Z,34.42
2022-09-23T15:06:55.256Z,35.24
2022-09-23T15:09:26.442Z,34.26
2022-09-23T15:11:57.930Z,35.37
2022-09-23T15:14:44.875Z,35.30
2022-09-23T15:17:30.214Z,35.96
2022-09-23T15:20:01.810Z,34.96
2022-09-23T15:22:31.199Z,35.00
2022-09-23T15:25:16.379Z,35.75
2022-09-23T15:27:57.524Z,34.32
2022-09-23T15:30:25.321Z,35.95
2022-09-23T15:32:53.670Z,34.82
2022-09-23T15:35:25.666Z,34.10
2022-09-23T15:37:58.382Z,33.82
2022-09-23T15:40:28.286Z,34.94
2022-09-23T15:42:58.737Z,35.37
2022-09-23T15:45:34.349Z,36.99
2022-09-23T15:48:07.412Z,37.45
2022-09-23T15:50:36.854Z,38.45
2022-09-23T15:53:06.430Z,38.40
2022-09-23T15:55:34.558Z,39.86
2022-09-23T15:58:02.415Z,40.76
2022-09-23T16:00:30.473Z,40.78
2022-09-23T16:02:58.279Z,40.92
2022-09-23T16:05:33.155Z,42.18
2022-09-23T16:08:03.790Z,42.97
2022-09-23T16:10:38.023Z,43.23
2022-09-23T16:13:14.181Z,43.30
2022-09-23T16:15:42.415Z,43.27
2022-09-23T16:18:11.964Z,44.12
2022-09-23T16:20:42.799Z,44.69
2022-09-23T16:23:35.694Z,45.17
2022-09-23T16:26:08.193Z,45.45
2022-09-23T16:28:36.141Z,45.64
2022-09-23T16:31:04.755Z,46.26
2022-09-23T16:33:32.908Z,46.63
2022-09-23T16:36:01.997Z,46.93
2022-09-23T16:38:31.513Z,47.14
2022-09-23T16:41:00.811Z,47.85
2022-09-23T16:43:39.778Z,48.64
2022-09-23T16:46:08.166Z,48.90
2022-09-23T16:48:38.374Z,49.28
2022-09-23T16:51:06.522Z,49.97
2022-09-23T16:53:35.466Z,50.15
2022-09-23T16:56:09.492Z,50.96
2022-09-23T16:58:39.606Z,51.46
2022-09-23T17:01:26.177Z,52.11
2022-09-23T17:03:54.201Z,52.77
2022-09-23T17:06:23.956Z,53.11
2022-09-23T17:08:51.899Z,53.49
2022-09-23T17:11:20.048Z,53.70
2022-09-23T17:13:49.485Z,54.21
2022-09-23T17:16:25.071Z,54.76
2022-09-23T17:18:55.482Z,54.82
2022-09-23T17:21:26.522Z,55.30
2022-09-23T17:23:54.719Z,55.78
2022-09-23T17:26:23.320Z,56.16
2022-09-23T17:28:54.344Z,56.35
2022-09-23T17:31:23.757Z,57.00
2022-09-23T17:33:53.030Z,57.21
2022-09-23T17:36:21.650Z,57.27
2022-09-23T17:38:53.555Z,57.84
2022-09-23T17:41:22.173Z,58.78
2022-09-23T17:44:00.475Z,60.61
2022-09-23T17:46:28.925Z,62.44
2022-09-23T17:48:57.124Z,63.33
2022-09-23T17:51:25.872Z,63.64
2022-09-23T17:53:53.857Z,65.15
2022-09-23T17:56:25.002Z,66.61
2022-09-23T17:58:54.468Z,67.47
2022-09-23T18:01:26.116Z,68.38
2022-09-23T18:03:56.206Z,70.63
2022-09-23T18:06:26.187Z,69.74
2022-09-23T18:08:55.953Z,70.34
2022-09-23T18:11:26.321Z,69.93
2022-09-23T18:13:56.093Z,69.94
2022-09-23T18:16:28.618Z,70.81
2022-09-23T18:18:58.460Z,70.62
2022-09-23T18:21:29.120Z,70.08
2022-09-23T18:24:15.669Z,70.05
2022-09-23T18:26:45.904Z,72.60
2022-09-23T18:29:16.047Z,73.22
2022-09-23T18:31:45.847Z,73.06
2022-09-23T18:34:16.211Z,73.28
2022-09-23T18:36:44.767Z,73.98
2022-09-23T18:39:12.670Z,74.33
2022-09-23T18:41:41.220Z,73.95
2022-09-23T18:44:09.914Z,73.98
2022-09-23T18:46:38.105Z,73.14
2022-09-23T18:49:25.164Z,73.83
2022-09-23T18:51:56.013Z,73.71
2022-09-23T18:54:25.331Z,73.94
2022-09-23T18:56:53.508Z,74.01
2022-09-23T18:59:24.884Z,75.01
2022-09-23T19:01:55.518Z,75.29
2022-09-23T19:04:26.243Z,76.00
2022-09-23T19:06:56.432Z,77.12
2022-09-23T19:09:25.007Z,76.50
2022-09-23T19:11:53.389Z,76.40
2022-09-23T19:14:21.690Z,76.19
2022-09-23T19:16:50.667Z,75.93
2022-09-23T19:19:18.840Z,75.83
2022-09-23T19:21:48.033Z,76.17
2022-09-23T19:24:19.979Z,76.61
2022-09-23T19:26:48.523Z,76.71
2022-09-23T19:29:21.993Z,77.06
2022-09-23T19:31:50.168Z,77.27
2022-09-23T19:34:20.092Z,77.94
2022-09-23T19:36:49.636Z,78.17
2022-09-23T19:39:20.299Z,78.58
2022-09-23T19:41:49.518Z,78.78
2022-09-23T19:44:18.018Z,78.65
2022-09-23T19:46:53.492Z,78.68
2022-09-23T19:49:25.275Z,79.51
2022-09-23T19:51:55.714Z,79.47
2022-09-23T19:54:26.664Z,79.76
2022-09-23T19:56:54.707Z,79.70
2022-09-23T19:59:22.609Z,80.47
2022-09-23T20:01:50.592Z,80.68
2022-09-23T20:04:18.574Z,80.67
2022-09-23T20:06:48.042Z,81.45
2022-09-23T20:09:17.315Z,81.61
2022-09-23T20:11:45.231Z,81.96
2022-09-23T20:14:13.900Z,82.56
2022-09-23T20:16:41.940Z,82.19
2022-09-23T20:19:11.582Z,82.38
2022-09-23T20:21:39.687Z,83.54
2022-09-23T20:24:09.807Z,83.67
2022-09-23T20:26:56.708Z,83.48
2022-09-23T20:29:24.851Z,83.99
2022-09-23T20:31:52.940Z,84.18
2022-09-23T20:34:21.482Z,84.06
2022-09-23T20:36:51.992Z,83.85
2022-09-23T20:39:20.936Z,84.66
2022-09-23T20:41:50.654Z,84.98
2022-09-23T20:44:19.281Z,84.26
2022-09-23T20:46:49.043Z,84.00
2022-09-23T20:49:18.510Z,84.29
2022-09-23T20:51:48.136Z,84.65
2022-09-23T20:54:16.896Z,85.24
2022-09-23T20:56:47.334Z,85.38
2022-09-23T20:59:18.001Z,85.24
2022-09-23T21:01:47.749Z,85.80
2022-09-23T21:04:16.261Z,86.81
2022-09-23T21:06:44.075Z,87.26
2022-09-23T21:09:12.062Z,86.71
2022-09-23T21:11:40.010Z,87.04
2022-09-23T21:14:08.358Z,87.16
2022-09-23T21:16:37.640Z,87.14
2022-09-23T21:19:07.494Z,87.19
2022-09-23T21:21:35.664Z,87.55
2022-09-23T21:24:31.421Z,87.48
2022-09-23T21:26:52.817Z,87.88
2022-09-23T21:29:20.715Z,87.78
2022-09-23T21:31:50.056Z,88.20
2022-09-23T21:34:18.084Z,88.49
2022-09-23T21:36:48.733Z,88.14
2022-09-23T21:39:16.714Z,88.63
2022-09-23T21:41:44.555Z,88.99
2022-09-23T21:44:12.445Z,89.71
2022-09-23T21:46:40.626Z,89.84
2022-09-23T21:49:10.263Z,89.67
2022-09-23T21:51:41.143Z,90.24
2022-09-23T21:54:13.624Z,90.32
2022-09-23T21:56:41.473Z,90.89
2022-09-23T21:59:09.743Z,90.70
2022-09-23T22:01:39.424Z,91.39
2022-09-23T22:04:14.506Z,90.75
2022-09-23T22:06:42.787Z,91.59
2022-09-23T22:09:13.294Z,91.36
2022-09-23T22:11:59.079Z,91.88
2022-09-23T22:14:27.289Z,91.57
2022-09-23T22:16:57.477Z,92.37
2022-09-23T22:19:32.894Z,92.95
2022-09-23T22:22:00.772Z,93.02
2022-09-23T22:24:29.253Z,93.55
2022-09-23T22:26:57.028Z,92.86
2022-09-23T22:29:42.255Z,92.56
2022-09-23T22:32:30.207Z,92.64
2022-09-23T22:35:00.267Z,92.81
2022-09-23T22:37:30.562Z,93.06
2022-09-23T22:39:59.217Z,92.61
2022-09-23T22:42:28.050Z,93.34
2022-09-23T22:44:56.518Z,94.10
2022-09-23T22:47:24.923Z,94.14
2022-09-23T22:49:55.468Z,94.11
2022-09-23T22:52:25.312Z,94.17
2022-09-23T22:54:53.437Z,94.41
2022-09-23T22:57:21.386Z,94.49
2022-09-23T22:59:49.267Z,94.29
2022-09-23T23:02:17.898Z,94.21
2022-09-23T23:04:47.218Z,94.90
2022-09-23T23:07:15.821Z,94.67
2022-09-23T23:09:45.015Z,95.28
2022-09-23T23:12:12.965Z,95.60
2022-09-23T23:14:40.762Z,95.40
2022-09-23T23:17:08.585Z,94.64
2022-09-23T23:19:37.212Z,95.34
2022-09-23T23:22:05.393Z,95.39
2022-09-23T23:24:33.440Z,95.59
2022-09-23T23:27:02.641Z,95.50
2022-09-23T23:29:30.456Z,95.29
2022-09-23T23:31:58.268Z,95.69
2022-09-23T23:34:26.120Z,95.78
2022-09-23T23:36:55.312Z,96.22
2022-09-23T23:39:24.596Z,95.83
2022-09-23T23:41:55.049Z,96.40
2022-09-23T23:44:24.831Z,97.17
2022-09-23T23:46:53.135Z,98.13
2022-09-23T23:49:21.567Z,99.35
2022-09-23T23:51:49.676Z,99.61
2022-09-23T23:54:17.706Z,99.42
2022-09-23T23:56:45.708Z,99.62
2022-09-23T23:59:13.909Z,99.60
